sensor_id;sensor_type;location;lat;lon;timestamp;P1;durP1;ratioP1;P2;durP2;ratioP2
20034;SDS011;10178;48.034;9.800;2022-09-09T00:06:59;3.55;;;0.82;;
20034;SDS011;10178;48.034;9.800;2022-09-09T00:09:39;1.33;;;0.73;;
20034;SDS011;10178;48.034;9.800;2022-09-09T00:15:25;1.23;;;0.70;;
20034;SDS011;10178;48.034;9.800;2022-09-09T00:20:55;2.10;;;0.68;;
20034;SDS011;10178;48.034;9.800;2022-09-09T00:29:03;1.00;;;0.75;;
20034;SDS011;10178;48.034;9.800;2022-09-09T00:31:33;1.05;;;0.63;;
20034;SDS011;10178;48.034;9.800;2022-09-09T00:34:03;6.03;;;1.02;;
20034;SDS011;10178;48.034;9.800;2022-09-09T00:36:41;1.40;;;0.82;;
20034;SDS011;10178;48.034;9.800;2022-09-09T00:39:10;1.05;;;0.57;;
20034;SDS011;10178;48.034;9.800;2022-09-09T00:44:37;2.25;;;0.93;;
20034;SDS011;10178;48.034;9.800;2022-09-09T00:50:03;0.93;;;0.60;;
20034;SDS011;10178;48.034;9.800;2022-09-09T00:52:52;2.55;;;0.77;;
20034;SDS011;10178;48.034;9.800;2022-09-09T00:58:17;1.52;;;0.80;;
20034;SDS011;10178;48.034;9.800;2022-09-09T01:00:46;1.02;;;0.60;;
20034;SDS011;10178;48.034;9.800;2022-09-09T01:03:29;0.45;;;0.45;;
20034;SDS011;10178;48.034;9.800;2022-09-09T01:17:21;4.68;;;0.82;;
20034;SDS011;10178;48.034;9.800;2022-09-09T01:20:02;5.72;;;0.80;;
20034;SDS011;10178;48.034;9.800;2022-09-09T01:22:47;1.33;;;0.65;;
20034;SDS011;10178;48.034;9.800;2022-09-09T01:28:37;2.08;;;1.20;;
20034;SDS011;10178;48.034;9.800;2022-09-09T01:31:05;3.40;;;0.90;;
20034;SDS011;10178;48.034;9.800;2022-09-09T01:33:33;1.35;;;0.80;;
20034;SDS011;10178;48.034;9.800;2022-09-09T01:36:13;4.22;;;1.00;;
20034;SDS011;10178;48.034;9.800;2022-09-09T01:38:50;3.60;;;0.80;;
20034;SDS011;10178;48.034;9.800;2022-09-09T01:41:16;1.35;;;0.60;;
20034;SDS011;10178;48.034;9.800;2022-09-09T01:43:41;6.38;;;1.10;;
20034;SDS011;10178;48.034;9.800;2022-09-09T01:46:07;1.65;;;0.88;;
20034;SDS011;10178;48.034;9.800;2022-09-09T01:48:33;0.88;;;0.85;;
20034;SDS011;10178;48.034;9.800;2022-09-09T01:50:58;1.60;;;0.90;;
20034;SDS011;10178;48.034;9.800;2022-09-09T01:53:24;2.58;;;0.63;;
20034;SDS011;10178;48.034;9.800;2022-09-09T01:56:00;0.55;;;0.40;;
20034;SDS011;10178;48.034;9.800;2022-09-09T01:58:51;3.53;;;0.60;;
20034;SDS011;10178;48.034;9.800;2022-09-09T02:06:56;5.13;;;1.65;;
20034;SDS011;10178;48.034;9.800;2022-09-09T02:09:25;4.55;;;0.70;;
20034;SDS011;10178;48.034;9.800;2022-09-09T02:12:01;0.85;;;0.65;;
20034;SDS011;10178;48.034;9.800;2022-09-09T02:14:42;4.40;;;1.58;;
20034;SDS011;10178;48.034;9.800;2022-09-09T02:17:16;2.00;;;0.75;;
20034;SDS011;10178;48.034;9.800;2022-09-09T02:19:51;1.35;;;0.57;;
20034;SDS011;10178;48.034;9.800;2022-09-09T02:22:23;2.22;;;0.80;;
20034;SDS011;10178;48.034;9.800;2022-09-09T02:24:52;1.08;;;0.60;;
20034;SDS011;10178;48.034;9.800;2022-09-09T02:27:22;3.70;;;1.30;;
20034;SDS011;10178;48.034;9.800;2022-09-09T02:29:48;5.03;;;0.90;;
20034;SDS011;10178;48.034;9.800;2022-09-09T02:32:20;0.60;;;0.60;;
20034;SDS011;10178;48.034;9.800;2022-09-09T02:34:49;1.65;;;0.88;;
20034;SDS011;10178;48.034;9.800;2022-09-09T02:37:22;1.73;;;0.60;;
20034;SDS011;10178;48.034;9.800;2022-09-09T02:39:53;4.07;;;0.65;;
20034;SDS011;10178;48.034;9.800;2022-09-09T02:42:19;4.57;;;0.63;;
20034;SDS011;10178;48.034;9.800;2022-09-09T02:44:45;2.50;;;0.70;;
20034;SDS011;10178;48.034;9.800;2022-09-09T02:47:30;1.45;;;0.65;;
20034;SDS011;10178;48.034;9.800;2022-09-09T02:55:34;3.25;;;1.75;;
20034;SDS011;10178;48.034;9.800;2022-09-09T02:58:08;3.08;;;1.20;;
20034;SDS011;10178;48.034;9.800;2022-09-09T03:00:37;0.77;;;0.70;;
20034;SDS011;10178;48.034;9.800;2022-09-09T03:03:07;3.22;;;0.90;;
20034;SDS011;10178;48.034;9.800;2022-09-09T03:05:34;2.80;;;0.95;;
20034;SDS011;10178;48.034;9.800;2022-09-09T03:08:00;1.15;;;0.90;;
20034;SDS011;10178;48.034;9.800;2022-09-09T03:10:27;0.80;;;0.80;;
20034;SDS011;10178;48.034;9.800;2022-09-09T03:12:52;2.30;;;0.65;;
20034;SDS011;10178;48.034;9.800;2022-09-09T03:15:18;1.85;;;0.90;;
20034;SDS011;10178;48.034;9.800;2022-09-09T03:17:45;0.73;;;0.73;;
20034;SDS011;10178;48.034;9.800;2022-09-09T03:20:12;1.52;;;0.85;;
20034;SDS011;10178;48.034;9.800;2022-09-09T03:22:37;1.65;;;0.70;;
20034;SDS011;10178;48.034;9.800;2022-09-09T03:25:03;2.58;;;0.90;;
20034;SDS011;10178;48.034;9.800;2022-09-09T03:27:29;1.77;;;0.98;;
20034;SDS011;10178;48.034;9.800;2022-09-09T03:29:55;2.17;;;0.77;;
20034;SDS011;10178;48.034;9.800;2022-09-09T03:32:21;2.38;;;1.10;;
20034;SDS011;10178;48.034;9.800;2022-09-09T03:34:47;1.85;;;1.23;;
20034;SDS011;10178;48.034;9.800;2022-09-09T03:37:15;1.63;;;0.85;;
20034;SDS011;10178;48.034;9.800;2022-09-09T03:39:41;4.18;;;2.00;;
20034;SDS011;10178;48.034;9.800;2022-09-09T03:42:06;3.92;;;2.45;;
20034;SDS011;10178;48.034;9.800;2022-09-09T03:44:32;6.53;;;2.40;;
20034;SDS011;10178;48.034;9.800;2022-09-09T03:46:58;4.70;;;3.00;;
20034;SDS011;10178;48.034;9.800;2022-09-09T03:49:25;6.90;;;3.00;;
20034;SDS011;10178;48.034;9.800;2022-09-09T03:51:53;8.75;;;3.42;;
20034;SDS011;10178;48.034;9.800;2022-09-09T03:54:21;5.13;;;3.13;;
20034;SDS011;10178;48.034;9.800;2022-09-09T03:56:47;5.45;;;3.05;;
20034;SDS011;10178;48.034;9.800;2022-09-09T03:59:13;2.50;;;1.27;;
20034;SDS011;10178;48.034;9.800;2022-09-09T04:01:39;4.18;;;2.33;;
20034;SDS011;10178;48.034;9.800;2022-09-09T04:04:05;7.18;;;2.80;;
20034;SDS011;10178;48.034;9.800;2022-09-09T04:06:30;1.65;;;1.05;;
20034;SDS011;10178;48.034;9.800;2022-09-09T04:08:56;1.05;;;1.00;;
20034;SDS011;10178;48.034;9.800;2022-09-09T04:11:21;2.72;;;1.02;;
20034;SDS011;10178;48.034;9.800;2022-09-09T04:13:47;1.23;;;1.13;;
20034;SDS011;10178;48.034;9.800;2022-09-09T04:16:14;1.27;;;1.17;;
20034;SDS011;10178;48.034;9.800;2022-09-09T04:18:40;2.85;;;1.40;;
20034;SDS011;10178;48.034;9.800;2022-09-09T04:21:06;2.33;;;1.13;;
20034;SDS011;10178;48.034;9.800;2022-09-09T04:23:33;1.15;;;0.90;;
20034;SDS011;10178;48.034;9.800;2022-09-09T04:26:00;2.53;;;1.15;;
20034;SDS011;10178;48.034;9.800;2022-09-09T04:28:27;3.17;;;1.20;;
20034;SDS011;10178;48.034;9.800;2022-09-09T04:30:55;0.80;;;0.80;;
20034;SDS011;10178;48.034;9.800;2022-09-09T04:33:22;1.65;;;1.10;;
20034;SDS011;10178;48.034;9.800;2022-09-09T04:35:50;1.52;;;1.00;;
20034;SDS011;10178;48.034;9.800;2022-09-09T04:38:18;1.70;;;0.90;;
20034;SDS011;10178;48.034;9.800;2022-09-09T04:40:48;3.50;;;0.98;;
20034;SDS011;10178;48.034;9.800;2022-09-09T04:43:14;2.47;;;1.08;;
20034;SDS011;10178;48.034;9.800;2022-09-09T04:45:41;0.98;;;0.90;;
20034;SDS011;10178;48.034;9.800;2022-09-09T04:48:07;2.35;;;1.00;;
20034;SDS011;10178;48.034;9.800;2022-09-09T04:50:34;1.35;;;1.10;;
20034;SDS011;10178;48.034;9.800;2022-09-09T04:53:03;2.20;;;1.05;;
20034;SDS011;10178;48.034;9.800;2022-09-09T04:55:32;0.80;;;0.80;;
20034;SDS011;10178;48.034;9.800;2022-09-09T04:58:06;1.58;;;1.00;;
20034;SDS011;10178;48.034;9.800;2022-09-09T05:00:33;1.38;;;1.08;;
20034;SDS011;10178;48.034;9.800;2022-09-09T05:03:09;2.15;;;0.90;;
20034;SDS011;10178;48.034;9.800;2022-09-09T05:05:35;4.20;;;1.00;;
20034;SDS011;10178;48.034;9.800;2022-09-09T05:08:02;1.10;;;1.00;;
20034;SDS011;10178;48.034;9.800;2022-09-09T05:10:28;1.95;;;1.13;;
20034;SDS011;10178;48.034;9.800;2022-09-09T05:12:54;1.85;;;1.05;;
20034;SDS011;10178;48.034;9.800;2022-09-09T05:15:21;2.08;;;0.90;;
20034;SDS011;10178;48.034;9.800;2022-09-09T05:17:46;3.47;;;1.02;;
20034;SDS011;10178;48.034;9.800;2022-09-09T05:20:12;3.00;;;1.10;;
20034;SDS011;10178;48.034;9.800;2022-09-09T05:22:38;0.90;;;0.90;;
20034;SDS011;10178;48.034;9.800;2022-09-09T05:25:03;2.28;;;1.10;;
20034;SDS011;10178;48.034;9.800;2022-09-09T05:27:29;3.08;;;1.10;;
20034;SDS011;10178;48.034;9.800;2022-09-09T05:29:57;3.00;;;1.05;;
20034;SDS011;10178;48.034;9.800;2022-09-09T05:32:23;3.63;;;0.90;;
20034;SDS011;10178;48.034;9.800;2022-09-09T05:34:49;1.50;;;0.85;;
20034;SDS011;10178;48.034;9.800;2022-09-09T05:37:15;1.38;;;1.10;;
20034;SDS011;10178;48.034;9.800;2022-09-09T05:39:41;3.15;;;1.17;;
20034;SDS011;10178;48.034;9.800;2022-09-09T05:42:07;2.53;;;1.00;;
20034;SDS011;10178;48.034;9.800;2022-09-09T05:44:32;1.95;;;1.20;;
20034;SDS011;10178;48.034;9.800;2022-09-09T05:46:58;1.10;;;0.95;;
20034;SDS011;10178;48.034;9.800;2022-09-09T05:49:24;2.45;;;1.10;;
20034;SDS011;10178;48.034;9.800;2022-09-09T05:51:50;5.75;;;1.10;;
20034;SDS011;10178;48.034;9.800;2022-09-09T05:54:16;1.90;;;1.13;;
20034;SDS011;10178;48.034;9.800;2022-09-09T05:56:41;3.13;;;1.17;;
20034;SDS011;10178;48.034;9.800;2022-09-09T05:59:07;1.02;;;0.88;;
20034;SDS011;10178;48.034;9.800;2022-09-09T06:01:34;2.78;;;0.93;;
20034;SDS011;10178;48.034;9.800;2022-09-09T06:04:01;1.70;;;1.20;;
20034;SDS011;10178;48.034;9.800;2022-09-09T06:06:30;4.30;;;1.10;;
20034;SDS011;10178;48.034;9.800;2022-09-09T06:08:57;1.45;;;0.98;;
20034;SDS011;10178;48.034;9.800;2022-09-09T06:11:27;1.20;;;1.10;;
20034;SDS011;10178;48.034;9.800;2022-09-09T06:13:55;1.20;;;1.10;;
20034;SDS011;10178;48.034;9.800;2022-09-09T06:16:22;3.50;;;1.13;;
20034;SDS011;10178;48.034;9.800;2022-09-09T06:18:49;3.08;;;1.20;;
20034;SDS011;10178;48.034;9.800;2022-09-09T06:21:17;2.75;;;0.80;;
20034;SDS011;10178;48.034;9.800;2022-09-09T06:23:45;0.65;;;0.65;;
20034;SDS011;10178;48.034;9.800;2022-09-09T06:26:12;1.48;;;0.82;;
20034;SDS011;10178;48.034;9.800;2022-09-09T06:28:46;2.50;;;1.00;;
20034;SDS011;10178;48.034;9.800;2022-09-09T06:31:13;2.17;;;1.00;;
20034;SDS011;10178;48.034;9.800;2022-09-09T06:33:48;3.08;;;1.05;;
20034;SDS011;10178;48.034;9.800;2022-09-09T06:36:15;2.00;;;0.82;;
20034;SDS011;10178;48.034;9.800;2022-09-09T06:38:45;2.67;;;1.00;;
20034;SDS011;10178;48.034;9.800;2022-09-09T06:41:12;2.00;;;0.98;;
20034;SDS011;10178;48.034;9.800;2022-09-09T06:43:40;2.33;;;0.90;;
20034;SDS011;10178;48.034;9.800;2022-09-09T06:46:10;0.75;;;0.73;;
20034;SDS011;10178;48.034;9.800;2022-09-09T06:48:39;0.98;;;0.70;;
20034;SDS011;10178;48.034;9.800;2022-09-09T06:51:28;1.67;;;0.75;;
20034;SDS011;10178;48.034;9.800;2022-09-09T06:53:54;4.25;;;0.80;;
20034;SDS011;10178;48.034;9.800;2022-09-09T06:58:53;3.28;;;0.98;;
20034;SDS011;10178;48.034;9.800;2022-09-09T07:01:24;5.28;;;1.00;;
20034;SDS011;10178;48.034;9.800;2022-09-09T07:03:53;3.50;;;1.10;;
20034;SDS011;10178;48.034;9.800;2022-09-09T07:06:23;4.18;;;1.27;;
20034;SDS011;10178;48.034;9.800;2022-09-09T07:08:54;3.53;;;0.90;;
20034;SDS011;10178;48.034;9.800;2022-09-09T07:11:23;1.05;;;0.80;;
20034;SDS011;10178;48.034;9.800;2022-09-09T07:13:52;2.83;;;1.00;;
20034;SDS011;10178;48.034;9.800;2022-09-09T07:16:18;1.02;;;0.80;;
20034;SDS011;10178;48.034;9.800;2022-09-09T07:18:45;2.92;;;0.82;;
20034;SDS011;10178;48.034;9.800;2022-09-09T07:21:12;2.75;;;0.75;;
20034;SDS011;10178;48.034;9.800;2022-09-09T07:23:39;0.93;;;0.70;;
20034;SDS011;10178;48.034;9.800;2022-09-09T07:26:13;2.35;;;0.90;;
20034;SDS011;10178;48.034;9.800;2022-09-09T07:28:41;2.22;;;0.90;;
20034;SDS011;10178;48.034;9.800;2022-09-09T07:31:08;2.72;;;0.70;;
20034;SDS011;10178;48.034;9.800;2022-09-09T07:33:40;2.70;;;0.88;;
20034;SDS011;10178;48.034;9.800;2022-09-09T07:36:07;2.45;;;0.88;;
20034;SDS011;10178;48.034;9.800;2022-09-09T07:38:42;1.70;;;0.82;;
20034;SDS011;10178;48.034;9.800;2022-09-09T07:41:13;2.05;;;0.50;;
20034;SDS011;10178;48.034;9.800;2022-09-09T07:43:42;3.75;;;1.10;;
20034;SDS011;10178;48.034;9.800;2022-09-09T07:46:11;3.33;;;1.00;;
20034;SDS011;10178;48.034;9.800;2022-09-09T07:48:38;4.10;;;1.17;;
20034;SDS011;10178;48.034;9.800;2022-09-09T07:51:10;5.95;;;0.95;;
20034;SDS011;10178;48.034;9.800;2022-09-09T07:53:44;2.47;;;0.80;;
20034;SDS011;10178;48.034;9.800;2022-09-09T07:56:12;2.50;;;0.80;;
20034;SDS011;10178;48.034;9.800;2022-09-09T07:58:41;2.83;;;1.10;;
20034;SDS011;10178;48.034;9.800;2022-09-09T08:01:07;0.70;;;0.65;;
20034;SDS011;10178;48.034;9.800;2022-09-09T08:03:38;2.10;;;0.75;;
20034;SDS011;10178;48.034;9.800;2022-09-09T08:06:05;3.97;;;0.77;;
20034;SDS011;10178;48.034;9.800;2022-09-09T08:08:33;3.75;;;1.25;;
20034;SDS011;10178;48.034;9.800;2022-09-09T08:11:11;1.35;;;0.68;;
20034;SDS011;10178;48.034;9.800;2022-09-09T08:13:39;3.00;;;1.05;;
20034;SDS011;10178;48.034;9.800;2022-09-09T08:16:07;3.50;;;1.10;;
20034;SDS011;10178;48.034;9.800;2022-09-09T08:18:33;1.77;;;1.02;;
20034;SDS011;10178;48.034;9.800;2022-09-09T08:21:33;2.05;;;1.00;;
20034;SDS011;10178;48.034;9.800;2022-09-09T08:23:53;3.03;;;0.75;;
20034;SDS011;10178;48.034;9.800;2022-09-09T08:26:24;2.28;;;1.10;;
20034;SDS011;10178;48.034;9.800;2022-09-09T08:28:50;0.90;;;0.70;;
20034;SDS011;10178;48.034;9.800;2022-09-09T08:31:20;4.75;;;0.88;;
20034;SDS011;10178;48.034;9.800;2022-09-09T08:33:47;1.23;;;0.70;;
20034;SDS011;10178;48.034;9.800;2022-09-09T08:36:14;1.80;;;0.75;;
20034;SDS011;10178;48.034;9.800;2022-09-09T08:38:42;1.58;;;0.70;;
20034;SDS011;10178;48.034;9.800;2022-09-09T08:58:19;0.57;;;0.52;;
20034;SDS011;10178;48.034;9.800;2022-09-09T09:06:24;4.10;;;1.23;;
20034;SDS011;10178;48.034;9.800;2022-09-09T09:11:59;2.95;;;0.68;;
20034;SDS011;10178;48.034;9.800;2022-09-09T09:14:30;2.22;;;0.63;;
20034;SDS011;10178;48.034;9.800;2022-09-09T09:17:03;3.22;;;1.13;;
20034;SDS011;10178;48.034;9.800;2022-09-09T09:19:42;3.17;;;1.13;;
20034;SDS011;10178;48.034;9.800;2022-09-09T09:24:54;2.38;;;0.70;;
20034;SDS011;10178;48.034;9.800;2022-09-09T09:27:55;2.92;;;1.50;;
20034;SDS011;10178;48.034;9.800;2022-09-09T09:30:35;2.88;;;1.10;;
20034;SDS011;10178;48.034;9.800;2022-09-09T09:33:17;7.40;;;1.35;;
20034;SDS011;10178;48.034;9.800;2022-09-09T09:35:50;6.60;;;1.10;;
20034;SDS011;10178;48.034;9.800;2022-09-09T09:38:20;4.97;;;1.20;;
20034;SDS011;10178;48.034;9.800;2022-09-09T09:40:48;4.47;;;1.10;;
20034;SDS011;10178;48.034;9.800;2022-09-09T09:43:23;2.10;;;0.90;;
20034;SDS011;10178;48.034;9.800;2022-09-09T09:45:54;2.17;;;0.80;;
20034;SDS011;10178;48.034;9.800;2022-09-09T09:48:23;4.85;;;1.40;;
20034;SDS011;10178;48.034;9.800;2022-09-09T09:50:55;5.43;;;1.00;;
20034;SDS011;10178;48.034;9.800;2022-09-09T09:53:31;4.35;;;0.98;;
20034;SDS011;10178;48.034;9.800;2022-09-09T09:56:06;4.63;;;0.98;;
20034;SDS011;10178;48.034;9.800;2022-09-09T10:01:22;4.70;;;1.05;;
20034;SDS011;10178;48.034;9.800;2022-09-09T10:06:42;4.28;;;1.50;;
20034;SDS011;10178;48.034;9.800;2022-09-09T10:09:20;2.70;;;1.02;;
20034;SDS011;10178;48.034;9.800;2022-09-09T10:21:03;9.00;;;1.00;;
20034;SDS011;10178;48.034;9.800;2022-09-09T10:26:35;2.70;;;0.80;;
20034;SDS011;10178;48.034;9.800;2022-09-09T10:29:28;5.63;;;0.90;;
20034;SDS011;10178;48.034;9.800;2022-09-09T10:32:33;4.70;;;0.98;;
20034;SDS011;10178;48.034;9.800;2022-09-09T10:35:13;2.53;;;0.77;;
20034;SDS011;10178;48.034;9.800;2022-09-09T10:37:50;4.85;;;0.73;;
20034;SDS011;10178;48.034;9.800;2022-09-09T10:42:52;2.92;;;0.90;;
20034;SDS011;10178;48.034;9.800;2022-09-09T10:45:25;3.17;;;0.77;;
20034;SDS011;10178;48.034;9.800;2022-09-09T10:48:07;3.83;;;0.82;;
20034;SDS011;10178;48.034;9.800;2022-09-09T10:56:11;3.33;;;0.95;;
20034;SDS011;10178;48.034;9.800;2022-09-09T10:58:53;1.67;;;0.70;;
20034;SDS011;10178;48.034;9.800;2022-09-09T11:01:27;1.80;;;0.75;;
20034;SDS011;10178;48.034;9.800;2022-09-09T11:04:17;4.07;;;0.93;;
20034;SDS011;10178;48.034;9.800;2022-09-09T11:06:45;1.42;;;0.77;;
20034;SDS011;10178;48.034;9.800;2022-09-09T11:09:19;1.90;;;0.90;;
20034;SDS011;10178;48.034;9.800;2022-09-09T11:11:57;5.43;;;1.02;;
20034;SDS011;10178;48.034;9.800;2022-09-09T11:14:38;1.48;;;0.60;;
20034;SDS011;10178;48.034;9.800;2022-09-09T11:17:10;3.40;;;0.70;;
20034;SDS011;10178;48.034;9.800;2022-09-09T11:19:42;6.55;;;1.02;;
20034;SDS011;10178;48.034;9.800;2022-09-09T11:24:44;0.68;;;0.60;;
20034;SDS011;10178;48.034;9.800;2022-09-09T11:32:50;3.40;;;0.88;;
20034;SDS011;10178;48.034;9.800;2022-09-09T11:35:57;1.85;;;0.82;;
20034;SDS011;10178;48.034;9.800;2022-09-09T11:38:41;2.60;;;0.90;;
20034;SDS011;10178;48.034;9.800;2022-09-09T11:41:11;1.00;;;0.55;;
20034;SDS011;10178;48.034;9.800;2022-09-09T11:43:43;4.03;;;0.82;;
20034;SDS011;10178;48.034;9.800;2022-09-09T11:46:15;5.78;;;0.90;;
20034;SDS011;10178;48.034;9.800;2022-09-09T11:48:56;3.83;;;0.85;;
20034;SDS011;10178;48.034;9.800;2022-09-09T11:51:26;2.92;;;0.90;;
20034;SDS011;10178;48.034;9.800;2022-09-09T11:54:00;2.08;;;0.70;;
20034;SDS011;10178;48.034;9.800;2022-09-09T12:01:43;4.53;;;0.85;;
20034;SDS011;10178;48.034;9.800;2022-09-09T12:12:05;2.40;;;0.77;;
20034;SDS011;10178;48.034;9.800;2022-09-09T12:14:36;2.08;;;0.63;;
20034;SDS011;10178;48.034;9.800;2022-09-09T12:17:24;1.13;;;0.60;;
20034;SDS011;10178;48.034;9.800;2022-09-09T12:23:05;3.40;;;0.90;;
20034;SDS011;10178;48.034;9.800;2022-09-09T12:28:11;1.60;;;0.75;;
20034;SDS011;10178;48.034;9.800;2022-09-09T12:33:11;2.10;;;0.75;;
20034;SDS011;10178;48.034;9.800;2022-09-09T12:35:38;3.55;;;0.90;;
20034;SDS011;10178;48.034;9.800;2022-09-09T12:38:06;4.22;;;0.80;;
20034;SDS011;10178;48.034;9.800;2022-09-09T12:40:39;4.50;;;1.13;;
20034;SDS011;10178;48.034;9.800;2022-09-09T12:43:21;3.15;;;0.63;;
20034;SDS011;10178;48.034;9.800;2022-09-09T12:45:49;1.75;;;0.77;;
20034;SDS011;10178;48.034;9.800;2022-09-09T12:48:22;3.50;;;0.80;;
20034;SDS011;10178;48.034;9.800;2022-09-09T12:50:57;1.40;;;0.68;;
20034;SDS011;10178;48.034;9.800;2022-09-09T12:53:26;2.35;;;0.85;;
20034;SDS011;10178;48.034;9.800;2022-09-09T12:55:57;2.67;;;0.70;;
20034;SDS011;10178;48.034;9.800;2022-09-09T12:58:25;3.03;;;0.80;;
20034;SDS011;10178;48.034;9.800;2022-09-09T13:00:54;2.40;;;0.95;;
20034;SDS011;10178;48.034;9.800;2022-09-09T13:03:25;1.50;;;0.80;;
20034;SDS011;10178;48.034;9.800;2022-09-09T13:05:51;2.38;;;1.02;;
20034;SDS011;10178;48.034;9.800;2022-09-09T13:08:19;3.30;;;0.73;;
20034;SDS011;10178;48.034;9.800;2022-09-09T13:13:20;6.25;;;0.88;;
20034;SDS011;10178;48.034;9.800;2022-09-09T13:16:32;3.20;;;0.70;;
20034;SDS011;10178;48.034;9.800;2022-09-09T13:19:12;2.22;;;0.80;;
20034;SDS011;10178;48.034;9.800;2022-09-09T13:21:40;1.90;;;0.70;;
20034;SDS011;10178;48.034;9.800;2022-09-09T13:26:55;2.22;;;0.65;;
20034;SDS011;10178;48.034;9.800;2022-09-09T13:29:50;3.15;;;0.75;;
20034;SDS011;10178;48.034;9.800;2022-09-09T13:32:21;1.40;;;0.70;;
20034;SDS011;10178;48.034;9.800;2022-09-09T13:35:22;1.17;;;0.70;;
20034;SDS011;10178;48.034;9.800;2022-09-09T13:37:47;1.10;;;0.60;;
20034;SDS011;10178;48.034;9.800;2022-09-09T13:40:17;1.48;;;0.60;;
20034;SDS011;10178;48.034;9.800;2022-09-09T13:42:44;3.00;;;0.63;;
20034;SDS011;10178;48.034;9.800;2022-09-09T13:45:20;1.13;;;0.55;;
20034;SDS011;10178;48.034;9.800;2022-09-09T13:47:49;3.30;;;0.70;;
20034;SDS011;10178;48.034;9.800;2022-09-09T13:52:52;1.00;;;0.60;;
20034;SDS011;10178;48.034;9.800;2022-09-09T13:55:22;3.17;;;0.70;;
20034;SDS011;10178;48.034;9.800;2022-09-09T13:57:50;4.13;;;0.65;;
20034;SDS011;10178;48.034;9.800;2022-09-09T14:00:17;2.40;;;0.90;;
20034;SDS011;10178;48.034;9.800;2022-09-09T14:02:43;1.20;;;0.60;;
20034;SDS011;10178;48.034;9.800;2022-09-09T14:05:09;1.42;;;0.50;;
20034;SDS011;10178;48.034;9.800;2022-09-09T14:07:36;1.52;;;0.80;;
20034;SDS011;10178;48.034;9.800;2022-09-09T14:10:04;2.25;;;0.70;;
20034;SDS011;10178;48.034;9.800;2022-09-09T14:12:30;3.80;;;0.70;;
20034;SDS011;10178;48.034;9.800;2022-09-09T14:14:56;2.30;;;0.68;;
20034;SDS011;10178;48.034;9.800;2022-09-09T14:17:21;0.70;;;0.55;;
20034;SDS011;10178;48.034;9.800;2022-09-09T14:19:47;4.63;;;0.60;;
20034;SDS011;10178;48.034;9.800;2022-09-09T14:22:14;1.38;;;0.55;;
20034;SDS011;10178;48.034;9.800;2022-09-09T14:27:54;1.75;;;0.80;;
20034;SDS011;10178;48.034;9.800;2022-09-09T14:30:21;1.38;;;0.63;;
20034;SDS011;10178;48.034;9.800;2022-09-09T14:32:52;3.35;;;0.52;;
20034;SDS011;10178;48.034;9.800;2022-09-09T14:35:24;2.00;;;0.63;;
20034;SDS011;10178;48.034;9.800;2022-09-09T14:38:14;1.55;;;0.60;;
20034;SDS011;10178;48.034;9.800;2022-09-09T14:40:58;3.50;;;0.70;;
20034;SDS011;10178;48.034;9.800;2022-09-09T14:43:49;1.52;;;0.55;;
20034;SDS011;10178;48.034;9.800;2022-09-09T14:49:18;3.08;;;0.50;;
20034;SDS011;10178;48.034;9.800;2022-09-09T14:55:41;2.42;;;1.08;;
20034;SDS011;10178;48.034;9.800;2022-09-09T14:58:07;1.83;;;0.60;;
20034;SDS011;10178;48.034;9.800;2022-09-09T15:00:32;1.63;;;0.65;;
20034;SDS011;10178;48.034;9.800;2022-09-09T15:03:13;3.80;;;0.77;;
20034;SDS011;10178;48.034;9.800;2022-09-09T15:08:59;0.85;;;0.47;;
20034;SDS011;10178;48.034;9.800;2022-09-09T15:11:26;2.15;;;0.70;;
20034;SDS011;10178;48.034;9.800;2022-09-09T15:13:55;1.73;;;0.70;;
20034;SDS011;10178;48.034;9.800;2022-09-09T15:16:39;1.77;;;0.88;;
20034;SDS011;10178;48.034;9.800;2022-09-09T15:19:23;2.17;;;0.77;;
20034;SDS011;10178;48.034;9.800;2022-09-09T15:21:49;1.92;;;0.70;;
20034;SDS011;10178;48.034;9.800;2022-09-09T15:24:15;2.20;;;0.70;;
20034;SDS011;10178;48.034;9.800;2022-09-09T15:26:41;0.77;;;0.60;;
20034;SDS011;10178;48.034;9.800;2022-09-09T15:33:00;3.80;;;0.98;;
20034;SDS011;10178;48.034;9.800;2022-09-09T15:38:46;1.92;;;0.98;;
20034;SDS011;10178;48.034;9.800;2022-09-09T15:41:12;2.88;;;0.75;;
20034;SDS011;10178;48.034;9.800;2022-09-09T15:43:38;3.75;;;0.88;;
20034;SDS011;10178;48.034;9.800;2022-09-09T15:49:26;2.03;;;0.82;;
20034;SDS011;10178;48.034;9.800;2022-09-09T15:51:53;1.63;;;0.77;;
20034;SDS011;10178;48.034;9.800;2022-09-09T15:54:23;1.90;;;0.60;;
20034;SDS011;10178;48.034;9.800;2022-09-09T15:56:56;3.20;;;0.70;;
20034;SDS011;10178;48.034;9.800;2022-09-09T15:59:26;2.80;;;0.60;;
20034;SDS011;10178;48.034;9.800;2022-09-09T16:08:30;1.52;;;0.73;;
20034;SDS011;10178;48.034;9.800;2022-09-09T16:11:03;2.90;;;0.90;;
20034;SDS011;10178;48.034;9.800;2022-09-09T16:17:22;2.72;;;0.80;;
20034;SDS011;10178;48.034;9.800;2022-09-09T16:24:51;1.55;;;0.57;;
20034;SDS011;10178;48.034;9.800;2022-09-09T16:27:16;1.58;;;0.82;;
20034;SDS011;10178;48.034;9.800;2022-09-09T16:29:42;1.35;;;0.80;;
20034;SDS011;10178;48.034;9.800;2022-09-09T16:35:00;0.80;;;0.70;;
20034;SDS011;10178;48.034;9.800;2022-09-09T16:37:26;1.05;;;0.40;;
20034;SDS011;10178;48.034;9.800;2022-09-09T16:39:55;1.45;;;0.65;;
20034;SDS011;10178;48.034;9.800;2022-09-09T16:42:21;2.35;;;0.88;;
20034;SDS011;10178;48.034;9.800;2022-09-09T16:44:53;1.35;;;0.70;;
20034;SDS011;10178;48.034;9.800;2022-09-09T16:51:32;1.85;;;0.70;;
20034;SDS011;10178;48.034;9.800;2022-09-09T16:57:42;2.65;;;0.80;;
20034;SDS011;10178;48.034;9.800;2022-09-09T17:00:08;6.30;;;1.10;;
20034;SDS011;10178;48.034;9.800;2022-09-09T17:02:34;3.35;;;0.90;;
20034;SDS011;10178;48.034;9.800;2022-09-09T17:04:59;2.05;;;0.70;;
20034;SDS011;10178;48.034;9.800;2022-09-09T17:07:25;5.45;;;1.02;;
20034;SDS011;10178;48.034;9.800;2022-09-09T17:09:50;2.38;;;0.77;;
20034;SDS011;10178;48.034;9.800;2022-09-09T17:12:19;1.38;;;0.70;;
20034;SDS011;10178;48.034;9.800;2022-09-09T17:14:46;1.17;;;0.70;;
20034;SDS011;10178;48.034;9.800;2022-09-09T17:17:12;3.15;;;0.90;;
20034;SDS011;10178;48.034;9.800;2022-09-09T17:19:37;0.98;;;0.73;;
20034;SDS011;10178;48.034;9.800;2022-09-09T17:22:03;2.30;;;0.65;;
20034;SDS011;10178;48.034;9.800;2022-09-09T17:24:29;1.73;;;0.60;;
20034;SDS011;10178;48.034;9.800;2022-09-09T17:26:55;2.33;;;0.70;;
20034;SDS011;10178;48.034;9.800;2022-09-09T17:29:20;0.80;;;0.50;;
20034;SDS011;10178;48.034;9.800;2022-09-09T17:31:46;1.42;;;0.57;;
20034;SDS011;10178;48.034;9.800;2022-09-09T17:34:12;2.20;;;0.60;;
20034;SDS011;10178;48.034;9.800;2022-09-09T17:36:38;1.05;;;0.40;;
20034;SDS011;10178;48.034;9.800;2022-09-09T17:39:04;1.10;;;0.47;;
20034;SDS011;10178;48.034;9.800;2022-09-09T17:41:39;1.08;;;0.50;;
20034;SDS011;10178;48.034;9.800;2022-09-09T17:44:05;0.98;;;0.30;;
20034;SDS011;10178;48.034;9.800;2022-09-09T17:46:35;1.08;;;0.55;;
20034;SDS011;10178;48.034;9.800;2022-09-09T17:49:06;7.18;;;0.65;;
20034;SDS011;10178;48.034;9.800;2022-09-09T17:51:39;1.02;;;0.70;;
20034;SDS011;10178;48.034;9.800;2022-09-09T17:54:07;5.32;;;0.68;;
20034;SDS011;10178;48.034;9.800;2022-09-09T17:56:38;2.67;;;0.50;;
20034;SDS011;10178;48.034;9.800;2022-09-09T17:59:06;1.80;;;0.50;;
20034;SDS011;10178;48.034;9.800;2022-09-09T18:01:35;0.65;;;0.43;;
20034;SDS011;10178;48.034;9.800;2022-09-09T18:04:04;2.30;;;0.60;;
20034;SDS011;10178;48.034;9.800;2022-09-09T18:06:32;3.08;;;0.75;;
20034;SDS011;10178;48.034;9.800;2022-09-09T18:09:05;0.95;;;0.50;;
20034;SDS011;10178;48.034;9.800;2022-09-09T18:11:34;1.70;;;0.50;;
20034;SDS011;10178;48.034;9.800;2022-09-09T18:14:06;5.20;;;0.90;;
20034;SDS011;10178;48.034;9.800;2022-09-09T18:16:34;3.30;;;0.90;;
20034;SDS011;10178;48.034;9.800;2022-09-09T18:19:00;2.05;;;0.50;;
20034;SDS011;10178;48.034;9.800;2022-09-09T18:21:29;1.60;;;0.40;;
20034;SDS011;10178;48.034;9.800;2022-09-09T18:23:58;1.90;;;0.60;;